Poway (476, 175, 178, 648) Station Data

Red Flag Warning: No
Fire Weather Zone: 250
SDGE Region: North East
Lat/Lon: 32.982/-117.04

Observations

Time Wind Speed/Gust Temp(F) RH Fuel Moist Fuel Temp(F) Dewpt(F) Tmax(F) Tmin(F) Accum Precip 10-min Precip SL Press(mb)
6/27 5:10pm 231 5 G 9 85° 32% - - 52° 95.2° 66.3° - - -
6/27 5:00pm 234 6 G 9 85° 32% - - 52° 95.2° 66.3° - - -
6/27 4:50pm 221 6 G 9 86° 32% - - 53° 95.2° 66.3° - - -
6/27 4:40pm 230 5 G 10 86° 33% - - 54° 95.2° 66.3° - - -
6/27 4:30pm 234 5 G 9 86° 32% - - 53° 95.2° 66.3° - - -
6/27 4:20pm 246 6 G 10 87° 29% - - 51° 95.2° 66.3° - - -
6/27 4:10pm 221 6 G 9 86° 31% - - 52° 95.2° 66.3° - - -
6/27 4:00pm 229 6 G 12 86° 30% - - 51° 95.2° 66.3° - - -
6/27 3:50pm 223 6 G 10 86° 31% - - 52° 95.2° 66.3° - - -
6/27 3:40pm 233 6 G 10 87° 32% - - 54° 95.2° 66.3° - - -
6/27 3:30pm 239 6 G 13 86° 33% - - 54° 95.2° 66.3° - - -
6/27 3:20pm 234 8 G 13 86° 33% - - 53° 95.2° 66.3° - - -
6/27 3:10pm 226 7 G 12 86° 34% - - 54° 95.2° 66.3° - - -
6/27 3:00pm 225 7 G 14 87° 34% - - 55° 95.2° 66.3° - - -
6/27 2:50pm 238 7 G 11 88° 35% - - 56° 95.2° 66.3° - - -
6/27 2:40pm 238 8 G 14 88° 32% - - 54° 95.2° 66.3° - - -
6/27 2:30pm 243 9 G 13 88° 31% - - 54° 95.2° 66.3° - - -
6/27 2:20pm 245 9 G 15 89° 28% - - 51° 95.2° 66.3° - - -
6/27 2:10pm 243 9 G 14 89° 26% - - 50° 95.2° 66.3° - - -
6/27 2:00pm 245 8 G 15 90° 28% - - 53° 95.2° 66.3° - - -
6/27 1:50pm 244 7 G 14 89° 30% - - 53° 95.2° 66.3° - - -
6/27 1:40pm 249 10 G 14 89° 32% - - 56° 95.2° 66.3° - - -
6/27 1:30pm 252 8 G 14 91° 32% - - 57° 95.2° 66.3° - - -
6/27 1:20pm 243 8 G 13 91° 33% - - 58° 95.2° 66.3° - - -
6/27 1:10pm 242 8 G 13 92° 31% - - 56° 95.2° 66.3° - - -
6/27 1:00pm 238 9 G 13 92° 30% - - 56° 95.2° 66.3° - - -
6/27 12:50pm 232 7 G 12 94° 29% - - 57° 95.2° 66.3° - - -
6/27 12:40pm 220 6 G 14 92° 31% - - 57° 94.3° 66.3° - - -
6/27 12:20pm 243 5 G 11 93° 28% - - 55° 94.2° 66.3° - - -
6/27 12:10pm 234 6 G 11 93° 27% - - 54° 94.1° 66.3° - - -
6/27 12:00pm 238 5 G 11 93° 25% - - 52° 93.9° 66.3° - - -
6/27 11:50am 241 6 G 12 93° 25% - - 52° 93.9° 66.3° - - -
6/27 11:40am 241 7 G 11 92° 26% - - 53° 93.3° 66.3° - - -
6/27 11:30am 230 5 G 11 92° 23% - - 49° 93.3° 66.3° - - -
6/27 11:20am 207 6 G 10 92° 21% - - 46° 92.9° 66.3° - - -
6/27 11:10am 201 7 G 11 91° 23% - - 48° 92.9° 66.3° - - -
6/27 11:00am 216 7 G 11 92° 24% - - 49° 92.9° 66.3° - - -
6/27 10:50am 203 6 G 11 91° 24% - - 49° 92.6° 66.3° - - -
6/27 10:40am 230 5 G 8 92° 23% - - 48° 92.6° 66.3° - - -
6/27 10:30am 233 4 G 9 91° 22% - - 46° 91.9° 66.3° - - -
6/27 10:20am 223 4 G 7 91° 20% - - 45° 91.9° 66.3° - - -
6/27 10:10am 221 2 G 5 90° 21% - - 45° 91.3° 66.3° - - -
6/27 10:00am 235 4 G 7 90° 22% - - 46° 91.1° 66.3° - - -
6/27 9:50am 228 4 G 8 89° 22% - - 45° 90.1° 66.3° - - -
6/27 9:40am 210 4 G 7 88° 19% - - 41° 89.1° 66.3° - - -
6/27 9:30am 222 4 G 8 88° 18% - - 39° 88.8° 66.3° - - -
6/27 9:20am 222 4 G 8 87° 18% - - 39° 88.8° 66.3° - - -
6/27 9:10am 198 3 G 6 85° 22% - - 42° 87° 66.3° - - -
6/27 9:00am 187 2 G 4 83° 25% - - 44° 84° 66.3° - - -
6/27 8:50am 175 1 G 3 81° 26% - - 44° 82.6° 66.3° - - -
6/27 8:40am 195 3 G 4 80° 29% - - 45° 80.7° 66.3° - - -
6/27 8:30am 203 3 G 4 79° 32% - - 47° 80° 66.3° - - -
6/27 8:20am 209 2 G 4 77° 33% - - 46° 78.7° 66.3° - - -
6/27 8:10am 209 2 G 4 76° 37% - - 47° 77° 66.3° - - -
6/27 8:00am 187 1 G 2 74° 38% - - 47° 76.7° 66.3° - - -
6/27 7:40am 198 1 G 2 72° 40% - - 46° 76.7° 66.3° - - -
6/27 7:30am 214 1 G 1 72° 39% - - 46° 76.7° 66.3° - - -
6/27 7:20am 242 0 G 1 71° 38% - - 44° 76.7° 66.3° - - -
6/27 7:10am 242 0 G 1 71° 38% - - 44° 76.7° 66.3° - - -
6/27 7:00am 27 1 G 2 71° 33% - - 40° 76.7° 66.3° - - -
6/27 6:50am 115 1 G 2 67° 40% - - 42° 76.7° 66.3° - - -
6/27 6:40am 94 0 G 1 68° 35% - - 39° 76.7° 66.3° - - -
6/27 6:30am 67 0 G 1 67° 37% - - 40° 76.7° 66.3° - - -
6/27 6:20am 0 0 G 0 67° 37% - - 40° 76.7° 66.4° - - -
6/27 6:10am 252 1 G 2 69° 34% - - 39° 76.7° 67° - - -
6/27 6:00am 25 1 G 2 68° 36% - - 40° 76.7° 67° - - -
6/27 5:50am 0 0 G 0 68° 36% - - 40° 76.7° 67.5° - - -
6/27 5:40am 233 0 G 2 69° 35% - - 40° 76.7° 68.2° - - -
6/27 5:30am 196 1 G 4 70° 33% - - 40° 76.7° 68.2° - - -
6/27 5:20am 76 0 G 1 72° 31% - - 39° 76.7° 68.2° - - -
6/27 5:10am 262 1 G 2 71° 33% - - 41° 76.7° 68.2° - - -
6/27 5:00am 304 1 G 3 72° 33% - - 41° 76.7° 68.2° - - -
6/27 4:50am 28 2 G 4 71° 35% - - 41° 76.7° 68.2° - - -
6/27 4:40am 62 0 G 1 70° 36% - - 42° 76.7° 68.2° - - -
6/27 4:30am 250 0 G 1 70° 36% - - 41° 76.7° 68.2° - - -
6/27 4:20am 263 1 G 2 69° 38% - - 42° 76.7° 68.2° - - -
6/27 4:10am 254 0 G 2 69° 39% - - 44° 76.7° 68.2° - - -
6/27 4:00am 253 1 G 2 69° 39% - - 44° 76.7° 68.2° - - -
6/27 3:50am 83 1 G 2 69° 41% - - 44° 76.7° 68.2° - - -
6/27 3:40am 63 1 G 2 70° 40% - - 44° 76.7° 68.7° - - -
6/27 3:30am 76 1 G 2 69° 41% - - 45° 76.7° 68.9° - - -
6/27 3:20am 104 1 G 2 72° 37% - - 44° 76.7° 69.6° - - -
6/27 3:10am 6 1 G 4 72° 37% - - 44° 76.7° 70° - - -
6/27 3:00am 57 1 G 3 71° 39% - - 45° 76.7° 70° - - -
6/27 2:50am 7 0 G 2 70° 42% - - 46° 76.7° 70° - - -
6/27 2:40am 0 0 G 0 72° 40% - - 46° 76.7° 70.6° - - -
6/27 2:30am 249 1 G 2 73° 36% - - 44° 76.7° 71.9° - - -
6/27 2:20am 257 0 G 2 72° 37% - - 45° 76.7° 71.9° - - -
6/27 2:10am 254 0 G 1 74° 35% - - 45° 76.7° 71.9° - - -
6/27 2:00am 27 1 G 3 74° 34% - - 44° 76.7° 71.9° - - -
6/27 1:50am 69 1 G 2 73° 39% - - 47° 76.7° 71.9° - - -
6/27 1:40am 0 0 G 0 73° 40% - - 48° 76.7° 71.9° - - -
6/27 1:30am 0 0 G 0 74° 40% - - 48° 76.7° 71.9° - - -
6/27 1:20am 0 0 G 0 73° 39% - - 47° 76.7° 71.9° - - -
6/27 1:10am 10 0 G 2 73° 35% - - 44° 76.7° 71.9° - - -
6/27 1:00am 82 1 G 2 74° 36% - - 45° 76.7° 72.8° - - -
6/27 12:50am 62 1 G 2 75° 37% - - 48° 76.7° 73.9° - - -
6/27 12:40am 42 1 G 2 75° 38% - - 48° 76.3° 74.1° - - -
6/27 12:30am 31 1 G 3 75° 38% - - 48° 76.1° 74.1° - - -
6/27 12:20am 49 0 G 1 75° 39% - - 48° 76° 74.1° - - -
6/27 12:10am 250 0 G 2 75° 37% - - 47° 76° 74.6° - - -
6/27 12:00am 245 2 G 3 76° 35% - - 47° 99.5° 64.9° - - -
6/26 11:50pm 254 1 G 2 77° 35% - - 48° 99.5° 64.9° - - -
6/26 11:40pm 40 0 G 2 78° 35% - - 48° 99.5° 64.9° - - -
6/26 11:30pm 31 1 G 2 77° 41% - - 51° 99.5° 64.9° - - -
6/26 11:20pm 37 1 G 4 77° 41% - - 52° 99.5° 64.9° - - -
6/26 11:10pm 33 2 G 3 77° 41% - - 52° 99.5° 64.9° - - -
6/26 11:00pm 22 3 G 3 76° 42% - - 51° 99.5° 64.9° - - -
6/26 10:50pm 83 0 G 2 76° 44% - - 52° 99.5° 64.9° - - -
6/26 10:40pm 61 0 G 1 76° 44% - - 53° 99.5° 64.9° - - -
6/26 10:30pm 197 0 G 1 76° 42% - - 51° 99.5° 64.9° - - -
6/26 10:20pm 238 0 G 2 77° 41% - - 51° 99.5° 64.9° - - -
6/26 10:10pm 340 1 G 2 77° 45% - - 54° 99.5° 64.9° - - -
6/26 10:00pm 41 2 G 3 77° 47% - - 55° 99.5° 64.9° - - -
6/26 9:50pm 31 3 G 4 78° 47% - - 56° 99.5° 64.9° - - -
6/26 9:40pm 25 2 G 3 77° 48% - - 56° 99.5° 64.9° - - -
6/26 9:30pm 39 1 G 2 78° 47% - - 56° 99.5° 64.9° - - -
6/26 9:20pm 10 2 G 3 79° 43% - - 55° 99.5° 64.9° - - -
6/26 9:10pm 279 2 G 4 79° 45% - - 56° 99.5° 64.9° - - -
6/26 9:00pm 244 2 G 2 80° 44% - - 56° 99.5° 64.9° - - -
6/26 8:50pm 237 2 G 2 81° 43% - - 56° 99.5° 64.9° - - -
6/26 8:40pm 230 2 G 3 81° 42% - - 56° 99.5° 64.9° - - -
6/26 8:30pm 224 0 G 2 82° 41% - - 55° 99.5° 64.9° - - -
6/26 8:20pm 116 1 G 2 82° 39% - - 55° 99.5° 64.9° - - -
6/26 8:10pm 251 0 G 2 83° 37% - - 54° 99.5° 64.9° - - -
6/26 8:00pm 223 1 G 2 84° 35% - - 53° 99.5° 64.9° - - -
6/26 7:50pm 59 1 G 3 85° 31% - - 51° 99.5° 64.9° - - -
6/26 7:40pm 353 2 G 5 85° 32% - - 52° 99.5° 64.9° - - -
6/26 7:30pm 289 3 G 5 86° 31% - - 52° 99.5° 64.9° - - -
6/26 7:20pm 289 3 G 5 86° 30% - - 51° 99.5° 64.9° - - -
6/26 7:10pm 290 4 G 5 87° 28% - - 50° 99.5° 64.9° - - -
6/26 7:00pm 283 4 G 6 88° 27% - - 49° 99.5° 64.9° - - -
6/26 6:50pm 279 3 G 6 88° 26% - - 49° 99.5° 64.9° - - -
6/26 6:40pm 283 3 G 5 89° 26% - - 49° 99.5° 64.9° - - -
6/26 6:30pm 271 3 G 6 89° 28% - - 51° 99.5° 64.9° - - -
6/26 6:20pm 275 3 G 6 90° 28% - - 52° 99.5° 64.9° - - -
6/26 6:10pm 271 4 G 7 90° 27% - - 51° 99.5° 64.9° - - -
6/26 6:00pm 271 5 G 10 90° 26% - - 51° 99.5° 64.9° - - -
6/26 5:50pm 265 5 G 10 91° 27% - - 53° 99.5° 64.9° - - -
6/26 5:40pm 256 6 G 10 91° 28% - - 54° 99.5° 64.9° - - -
6/26 5:30pm 265 5 G 9 92° 27% - - 53° 99.5° 64.9° - - -
6/26 5:20pm 263 6 G 10 93° 24% - - 51° 99.5° 64.9° - - -
6/26 5:10pm 269 5 G 10 93° 24% - - 51° 99.5° 64.9° - - -
6/26 5:00pm 252 6 G 12 93° 23% - - 51° 99.5° 64.9° - - -
6/26 4:50pm 253 6 G 11 93° 24% - - 51° 99.5° 64.9° - - -
6/26 4:40pm 256 5 G 10 94° 24% - - 52° 99.5° 64.9° - - -
6/26 4:30pm 265 5 G 8 94° 21% - - 48° 99.5° 64.9° - - -
6/26 4:20pm 263 5 G 12 95° 20% - - 47° 99.5° 64.9° - - -
6/26 4:10pm 275 5 G 9 95° 19% - - 47° 99.5° 64.9° - - -
6/26 4:00pm 272 5 G 9 95° 22% - - 50° 99.5° 64.9° - - -
6/26 3:50pm 269 5 G 10 96° 21% - - 50° 99.5° 64.9° - - -
6/26 3:40pm 263 5 G 10 96° 21% - - 50° 99.5° 64.9° - - -
6/26 3:30pm 264 5 G 12 97° 21% - - 50° 99.5° 64.9° - - -
6/26 3:20pm 255 6 G 12 97° 22% - - 51° 99.5° 64.9° - - -
6/26 3:10pm 270 5 G 10 97° 21% - - 51° 99.5° 64.9° - - -
6/26 3:00pm 268 4 G 7 99° 18% - - 48° 99.5° 64.9° - - -
6/26 2:50pm 252 5 G 10 98° 20% - - 50° 98.8° 64.9° - - -
6/26 2:40pm 245 6 G 11 97° 23% - - 53° 98.6° 64.9° - - -
6/26 2:30pm 249 6 G 12 97° 24% - - 54° 98.6° 64.9° - - -
6/26 2:20pm 232 5 G 9 97° 23% - - 54° 98.6° 64.9° - - -
6/26 2:10pm 230 5 G 11 96° 27% - - 57° 96.8° 64.9° - - -
6/26 2:00pm 226 6 G 11 95° 31% - - 60° 96.6° 64.9° - - -
6/26 1:50pm 212 6 G 10 94° 35% - - 62° 96.1° 64.9° - - -
6/26 1:40pm 210 6 G 10 93° 36% - - 63° 94.9° 64.9° - - -
6/26 1:30pm 218 7 G 10 93° 37% - - 63° 94.9° 64.9° - - -
6/26 1:20pm 227 7 G 12 93° 38% - - 63° 94.9° 64.9° - - -
6/26 1:10pm 232 7 G 11 93° 38% - - 64° 94.9° 64.9° - - -
6/26 1:00pm 241 7 G 11 93° 37% - - 63° 94.9° 64.9° - - -
6/26 12:50pm 224 6 G 10 93° 36% - - 62° 94.9° 64.9° - - -
6/26 12:40pm 247 5 G 9 93° 36% - - 62° 93.8° 64.9° - - -
6/26 12:30pm 241 5 G 11 93° 37% - - 62° 93.8° 64.9° - - -
6/26 12:20pm 247 5 G 9 93° 37% - - 62° 93.8° 64.9° - - -
6/26 12:10pm 238 6 G 10 93° 37% - - 63° 93.8° 64.9° - - -
6/26 12:00pm 251 5 G 11 92° 38% - - 63° 93.8° 64.9° - - -
6/26 11:50am 260 5 G 10 92° 38% - - 63° 93.8° 64.9° - - -
6/26 11:40am 248 5 G 12 92° 38% - - 63° 93.8° 64.9° - - -
6/26 11:30am 245 5 G 10 93° 36% - - 62° 93.8° 64.9° - - -
6/26 11:20am 240 5 G 10 92° 36% - - 61° 93.8° 64.9° - - -
6/26 11:10am 248 6 G 10 93° 34% - - 60° 93.8° 64.9° - - -
6/26 11:00am 248 6 G 9 93° 33% - - 59° 93.8° 64.9° - - -
6/26 10:50am 251 4 G 9 92° 34% - - 60° 92.9° 64.9° - - -
6/26 10:40am 247 4 G 9 91° 35% - - 60° 91.9° 64.9° - - -
6/26 10:30am 253 4 G 8 91° 36% - - 60° 91.9° 64.9° - - -
6/26 10:20am 253 5 G 9 91° 37% - - 61° 91.9° 64.9° - - -
6/26 10:10am 237 5 G 8 90° 38% - - 61° 91.1° 64.9° - - -
6/26 10:00am 216 6 G 9 90° 35% - - 58° 90.5° 64.9° - - -
6/26 9:50am 217 5 G 9 90° 35% - - 58° 90.3° 64.9° - - -
6/26 9:40am 226 5 G 8 89° 36% - - 58° 89.4° 64.9° - - -
6/26 9:30am 219 4 G 6 88° 36% - - 58° 89° 64.9° - - -
6/26 9:20am 212 4 G 6 87° 36% - - 57° 87.5° 64.9° - - -
6/26 9:10am 236 3 G 5 86° 37% - - 57° 87.2° 64.9° - - -
6/26 9:00am 221 3 G 5 83° 44% - - 59° 84.9° 64.9° - - -
6/26 8:50am 197 3 G 5 81° 48% - - 60° 82.5° 64.9° - - -
6/26 8:40am 201 3 G 4 80° 51% - - 60° 80.9° 64.9° - - -
6/26 8:30am 201 2 G 4 79° 52% - - 60° 80° 64.9° - - -
6/26 8:20am 198 2 G 3 78° 54% - - 60° 78.6° 64.9° - - -
6/26 8:10am 197 1 G 2 77° 56% - - 60° 77.5° 64.9° - - -
6/26 8:00am 172 1 G 2 76° 58% - - 60° 76.9° 64.9° - - -
6/26 7:50am 214 1 G 2 74° 59% - - 59° 75.2° 64.9° - - -
6/26 7:40am 194 0 G 1 73° 63% - - 60° 74.4° 64.9° - - -
6/26 7:30am 157 0 G 1 72° 64% - - 60° 74.4° 64.9° - - -
6/26 7:20am 107 0 G 1 73° 63% - - 59° 74.4° 64.9° - - -
6/26 7:10am 263 0 G 1 72° 59% - - 57° 74.4° 64.9° - - -
6/26 7:00am 257 0 G 1 71° 61% - - 57° 74.4° 64.9° - - -
6/26 6:50am 256 0 G 1 69° 65% - - 57° 74.4° 64.9° - - -
6/26 6:40am 0 0 G 0 69° 66% - - 57° 74.4° 64.9° - - -
6/26 6:30am 253 0 G 1 67° 67% - - 56° 74.4° 64.9° - - -
6/26 6:20am 76 0 G 2 67° 70% - - 57° 74.4° 64.9° - - -
6/26 6:10am 64 1 G 2 67° 69% - - 57° 74.4° 64.9° - - -
6/26 6:00am 54 0 G 2 70° 60% - - 55° 74.4° 64.9° - - -